Tropical Cyclones
[Index]
Main Index Home Page Stock Weather Photos Extreme Storms Discussion Storm News and Storm Chasing Reports Tropical Cyclones / Hurricanes / Typhoons Weather Data and Links Wild Fires / Bushfires Weather Observation Techniques Weather Picture Catalogue Tornado Pictures and Reports Stock Video Footage and DVDs for sale
Season 1996-1997 Tropical Cyclone HAROLD Track Map
Season 1996-1997 Summaries: [BoM-AU] [JTWC-AU] [JTWC-SIO] [JTWC-SPAC] [JTWC-SH]
<<- Previous TC | BoM 1996-1997 Season | Next TC ->>

click for intensity scale information  Lat/long Grid: Show Hide

 Date Labels: Show Hide

Bureau of Meteorology Tropical Cyclone Data

Name: HAROLD
Number: 806 / 199697_15

16 Feb 1997 06:00 UTC to 22 Feb 1997 12:00 UTC

    date/time    lat    long    hPa   cat  kts
1997-02-16 06   13.7   157.8   1000                     
1997-02-16 12   14.2   157.4   1000                     
1997-02-16 18   14.8   156.8    995    1                
1997-02-17 00   15.5   156.3    990    1                
1997-02-17 06   16.2   155.7    987    1                
1997-02-17 12   16.8   155.5    985    2                
1997-02-17 18   17.2   155.5    985    2                
1997-02-18 00   17.6   155.4    985    2                
1997-02-18 06   17.8   155.7    985    2                
1997-02-18 12   18.0   156.0    980    2                
1997-02-18 18   18.4   156.7    975    2                
1997-02-19 00   18.8   157.4    980    2                
1997-02-19 06   19.3   158.2    980    2                
1997-02-19 12   19.9   159.4    980    2                
1997-02-19 18   20.4   160.8    985    2                
1997-02-20 00   21.2   161.9    987    1                
1997-02-20 06   21.9   162.5    990    1                
1997-02-20 12   22.8   163.2    992    1                
1997-02-20 18   24.3   164.2    994    1                
1997-02-21 00   25.5   164.5    996                     
1997-02-21 06   27.2   164.5    993    1                
1997-02-21 12   29.2   164.5    993    1                
1997-02-21 18   30.1   165.3    992    1                
1997-02-22 00   31.5   165.5    995    1                
1997-02-22 06   32.6   166.1    995    1                
1997-02-22 12   33.4   166.8    997                     
Winds are 10-min average.

Tropical cyclone tracks developed by Michael Bath using data from the Bureau of Meteorology and Google Maps.


[Australian Severe Weather index] [Copyright Notice] [Email Contacts] [Search This Site] [Privacy Policy]
Document: tropical_cyclone_harold.htm Updated: 30 May 2013